Terminal Aerodrome Forecast
Issued by NWS

Home | Current Version | Previous Version | Text Only | Print | Product List | Glossary On
Versions: 1 2 3 4 5 6 7 8 9 10 11 12 13 14 15 16 17 18 19 20 21 22 23 24 25 26 27 28 29 30 31 32 33 34 35 36 37 38 39 40 41 42 43 44 45 46 47 48 49 50
000
FTUS43 KMKX 210520
TAFUES
TAF
KUES 210520Z 2106/2206 28010KT P6SM BKN080
     FM210900 28010KT P6SM SCT015 BKN035
      TEMPO 2112/2114 BKN015
     FM211400 33011G20KT P6SM VCSH OVC015
     FM212000 35013G20KT P6SM SCT040
     FM212300 35010KT P6SM SCT200
     FM220100 35004KT P6SM SKC=

USA.gov is the U.S. government's official web portal to all federal, state and local government web resources and services.